createdAt,value
2022-12-12T00:00:53.907Z,100207.09
2022-12-12T00:03:24.434Z,100163.50
2022-12-12T00:05:54.888Z,100211.19
2022-12-12T00:08:22.788Z,100207.63
2022-12-12T00:10:53.293Z,100210.44
2022-12-12T00:13:21.030Z,100218.25
2022-12-12T00:15:48.830Z,100218.25
2022-12-12T00:18:16.594Z,100223.28
2022-12-12T00:20:45.654Z,100228.69
2022-12-12T00:23:13.928Z,100178.22
2022-12-12T00:25:41.802Z,100216.41
2022-12-12T00:28:09.985Z,100225.06
2022-12-12T00:30:37.787Z,100201.91
2022-12-12T00:33:05.519Z,100225.25
2022-12-12T00:35:33.339Z,100223.47
2022-12-12T00:38:02.619Z,100212.19
2022-12-12T00:40:30.422Z,100226.09
2022-12-12T00:42:58.292Z,100210.81
2022-12-12T00:45:26.124Z,100203.34
2022-12-12T00:47:53.938Z,100195.19
2022-12-12T00:50:21.706Z,100231.31
2022-12-12T00:52:49.546Z,100228.50
2022-12-12T00:55:18.626Z,100230.19
2022-12-12T00:57:46.462Z,100231.13
2022-12-12T01:00:15.536Z,100232.06
2022-12-12T01:02:43.684Z,100234.56
2022-12-12T01:05:12.112Z,100232.81
2022-12-12T01:07:40.740Z,100230.00
2022-12-12T01:10:09.775Z,100225.81
2022-12-12T01:12:39.050Z,100236.16
2022-12-12T01:15:08.876Z,100242.31
2022-12-12T01:17:38.207Z,100241.97
2022-12-12T01:20:07.412Z,100229.38
2022-12-12T01:22:37.194Z,100241.75
2022-12-12T01:25:05.901Z,100244.25
2022-12-12T01:27:33.901Z,100249.22
2022-12-12T01:30:03.207Z,100245.41
2022-12-12T01:32:30.988Z,100255.47
2022-12-12T01:34:59.013Z,100265.16
2022-12-12T01:37:27.152Z,100255.00
2022-12-12T01:39:54.928Z,100244.75
2022-12-12T01:42:22.716Z,100265.63
2022-12-12T01:44:52.578Z,100259.84
2022-12-12T01:47:23.463Z,100263.38
2022-12-12T01:49:55.960Z,100267.56
2022-12-12T01:52:27.952Z,100264.22
2022-12-12T01:54:59.821Z,100255.00
2022-12-12T01:57:31.182Z,100262.84
2022-12-12T02:00:00.257Z,100256.22
2022-12-12T02:02:30.512Z,100209.41
2022-12-12T02:05:00.900Z,100262.09
2022-12-12T02:07:28.784Z,100272.34
2022-12-12T02:09:56.639Z,100260.13
2022-12-12T02:12:24.403Z,100266.19
2022-12-12T02:14:54.308Z,100260.31
2022-12-12T02:17:49.145Z,100262.19
2022-12-12T02:20:44.583Z,100262.09
2022-12-12T02:23:45.188Z,100261.34
2022-12-12T02:26:48.092Z,100263.94
2022-12-12T02:30:03.026Z,100256.56
2022-12-12T02:32:44.981Z,100265.63
2022-12-12T02:35:19.410Z,100261.69
2022-12-12T02:37:54.546Z,100245.69
2022-12-12T02:40:27.152Z,100263.19
2022-12-12T02:43:01.814Z,100261.50
2022-12-12T02:45:36.804Z,100265.81
2022-12-12T02:48:12.444Z,100266.81
2022-12-12T02:50:43.164Z,100244.00
2022-12-12T02:53:11.077Z,100261.78
2022-12-12T02:55:38.870Z,100233.91
2022-12-12T02:58:07.699Z,100252.19
2022-12-12T03:00:43.551Z,100251.16
2022-12-12T03:03:46.429Z,100250.50
2022-12-12T03:06:44.962Z,100251.25
2022-12-12T03:09:23.339Z,100251.72
2022-12-12T03:12:02.721Z,100256.13
2022-12-12T03:14:40.250Z,100257.13
2022-12-12T03:17:14.961Z,100213.50
2022-12-12T03:19:48.175Z,100246.59
2022-12-12T03:22:27.048Z,100260.94
2022-12-12T03:25:02.222Z,100225.81
2022-12-12T03:27:36.757Z,100229.34
2022-12-12T03:30:08.413Z,100237.09
2022-12-12T03:32:41.008Z,100263.69
2022-12-12T03:35:16.550Z,100266.38
2022-12-12T03:37:50.236Z,100252.41
2022-12-12T03:40:23.917Z,100244.34
2022-12-12T03:42:58.511Z,100252.41
2022-12-12T03:45:31.267Z,100257.97
2022-12-12T03:48:04.465Z,100254.25
2022-12-12T03:50:42.417Z,100252.09
2022-12-12T03:53:13.118Z,100250.50
2022-12-12T03:55:46.095Z,100233.47
2022-12-12T03:58:21.164Z,100246.41
2022-12-12T04:00:53.470Z,100223.09
2022-12-12T04:03:28.200Z,100265.78
2022-12-12T04:06:21.297Z,100249.84
2022-12-12T04:09:03.375Z,100271.19
2022-12-12T04:11:56.229Z,100193.44
2022-12-12T04:14:41.822Z,100284.31
2022-12-12T04:17:14.227Z,100249.00
2022-12-12T04:20:09.532Z,100273.19
2022-12-12T04:23:04.600Z,100287.47
2022-12-12T04:26:02.490Z,100288.59
2022-12-12T04:28:33.547Z,100269.19
2022-12-12T04:31:06.195Z,100266.38
2022-12-12T04:33:42.762Z,100245.38
2022-12-12T04:36:14.495Z,100272.25
2022-12-12T04:38:48.313Z,100295.75
2022-12-12T04:41:18.867Z,100304.03
2022-12-12T04:43:50.711Z,100295.88
2022-12-12T04:46:22.735Z,100274.91
2022-12-12T04:48:53.961Z,100304.50
2022-12-12T04:51:28.224Z,100288.81
2022-12-12T04:54:03.187Z,100302.94
2022-12-12T04:56:35.324Z,100300.97
2022-12-12T04:59:04.972Z,100308.03
2022-12-12T05:01:39.408Z,100306.19
2022-12-12T05:04:13.754Z,100288.47
2022-12-12T05:06:46.146Z,100296.13
2022-12-12T05:09:17.562Z,100270.75
2022-12-12T05:11:45.574Z,100261.94
2022-12-12T05:14:16.525Z,100311.59
2022-12-12T05:16:47.951Z,100315.31
2022-12-12T05:19:16.226Z,100312.44
2022-12-12T05:21:44.075Z,100319.41
2022-12-12T05:24:11.945Z,100268.47
2022-12-12T05:26:41.125Z,100321.03
2022-12-12T05:29:08.905Z,100314.34
2022-12-12T05:31:36.926Z,100302.56
2022-12-12T05:34:05.585Z,100321.88
2022-12-12T05:36:33.746Z,100323.06
2022-12-12T05:39:01.452Z,100319.72
2022-12-12T05:41:29.233Z,100323.50
2022-12-12T05:43:58.364Z,100318.19
2022-12-12T05:46:26.183Z,100316.34
2022-12-12T05:48:54.079Z,100322.25
2022-12-12T05:51:22.530Z,100326.69
2022-12-12T05:53:51.922Z,100327.63
2022-12-12T05:56:19.732Z,100330.13
2022-12-12T05:58:47.609Z,100326.69
2022-12-12T06:01:16.983Z,100336.66
2022-12-12T06:03:44.736Z,100333.34
2022-12-12T06:06:12.435Z,100332.59
2022-12-12T06:08:40.307Z,100338.72
2022-12-12T06:11:08.830Z,100337.78
2022-12-12T06:13:38.309Z,100346.53
2022-12-12T06:16:10.143Z,100339.66
2022-12-12T06:18:39.586Z,100343.00
2022-12-12T06:21:09.226Z,100343.25
2022-12-12T06:23:38.146Z,100346.13
2022-12-12T06:26:06.851Z,100347.03
2022-12-12T06:28:34.909Z,100346.13
2022-12-12T06:31:06.892Z,100349.66
2022-12-12T06:33:41.362Z,100341.19
2022-12-12T06:36:11.775Z,100349.47
2022-12-12T06:38:40.158Z,100350.56
2022-12-12T06:41:08.880Z,100356.41
2022-12-12T06:43:36.768Z,100355.06
2022-12-12T06:46:05.894Z,100340.00
2022-12-12T06:48:34.773Z,100350.50
2022-12-12T06:51:09.226Z,100359.69
2022-12-12T06:53:37.476Z,100362.28
2022-12-12T06:56:07.747Z,100363.13
2022-12-12T06:58:35.623Z,100372.47
2022-12-12T07:01:03.657Z,100369.09
2022-12-12T07:03:31.346Z,100367.13
2022-12-12T07:05:59.150Z,100369.00
2022-12-12T07:08:28.764Z,100371.53
2022-12-12T07:10:57.361Z,100372.63
2022-12-12T07:13:25.087Z,100380.69
2022-12-12T07:15:57.220Z,100374.63
2022-12-12T07:18:25.130Z,100388.34
2022-12-12T07:20:52.952Z,100388.34
2022-12-12T07:23:21.017Z,100396.16
2022-12-12T07:25:50.188Z,100392.19
2022-12-12T07:28:17.954Z,100397.25
2022-12-12T07:30:47.577Z,100390.19
2022-12-12T07:33:17.467Z,100388.66
2022-12-12T07:35:45.746Z,100395.94
2022-12-12T07:38:13.642Z,100366.41
2022-12-12T07:40:41.393Z,100384.97
2022-12-12T07:43:10.527Z,100401.28
2022-12-12T07:45:38.289Z,100390.78
2022-12-12T07:48:06.161Z,100395.09
2022-12-12T07:50:33.854Z,100392.28
2022-12-12T07:53:01.564Z,100395.66
2022-12-12T07:55:29.589Z,100395.06
2022-12-12T07:57:57.516Z,100406.34
2022-12-12T08:00:26.959Z,100403.66
2022-12-12T08:02:54.904Z,100407.50
2022-12-12T08:05:22.671Z,100410.19
2022-12-12T08:07:50.439Z,100411.94
2022-12-12T08:10:18.242Z,100405.81
2022-12-12T08:12:45.991Z,100407.41
2022-12-12T08:15:16.508Z,100401.97
2022-12-12T08:17:45.598Z,100412.38
2022-12-12T08:20:13.495Z,100408.19
2022-12-12T08:22:41.217Z,100410.88
2022-12-12T08:25:09.364Z,100410.03
2022-12-12T08:27:37.288Z,100411.53
2022-12-12T08:30:06.133Z,100421.59
2022-12-12T08:32:33.993Z,100430.41
2022-12-12T08:35:03.678Z,100419.91
2022-12-12T08:37:31.416Z,100419.84
2022-12-12T08:39:59.170Z,100420.09
2022-12-12T08:42:27.496Z,100423.44
2022-12-12T08:44:55.361Z,100431.03
2022-12-12T08:47:23.095Z,100422.44
2022-12-12T08:49:50.834Z,100431.25
2022-12-12T08:52:20.006Z,100432.19
2022-12-12T08:54:47.777Z,100433.63
2022-12-12T08:57:15.498Z,100436.66
2022-12-12T08:59:43.193Z,100441.44
2022-12-12T09:02:13.407Z,100436.00
2022-12-12T09:04:41.380Z,100442.13
2022-12-12T09:07:09.112Z,100442.81
2022-12-12T09:09:38.153Z,100447.19
2022-12-12T09:12:06.373Z,100447.84
2022-12-12T09:14:34.287Z,100450.34
2022-12-12T09:17:01.978Z,100444.69
2022-12-12T09:19:29.673Z,100449.53
2022-12-12T09:21:57.362Z,100451.91
2022-12-12T09:24:25.569Z,100456.53
2022-12-12T09:26:54.779Z,100453.00
2022-12-12T09:29:22.685Z,100449.53
2022-12-12T09:31:50.428Z,100449.06
2022-12-12T09:34:18.229Z,100454.94
2022-12-12T09:36:46.034Z,100455.59
2022-12-12T09:39:13.737Z,100458.13
2022-12-12T09:41:41.535Z,100455.03
2022-12-12T09:44:18.649Z,100455.69
2022-12-12T09:46:50.128Z,100455.69
2022-12-12T09:49:27.066Z,100457.03
2022-12-12T09:51:57.046Z,100451.59
2022-12-12T09:54:27.617Z,100453.44
2022-12-12T09:57:05.838Z,100461.50
2022-12-12T09:59:42.524Z,100461.16
2022-12-12T10:02:33.984Z,100467.31
2022-12-12T10:05:06.328Z,100461.72
2022-12-12T10:07:41.283Z,100465.53
2022-12-12T10:10:20.233Z,100467.38
2022-12-12T10:12:48.996Z,100462.56
2022-12-12T10:15:29.077Z,100463.16
2022-12-12T10:17:59.603Z,100462.81
2022-12-12T10:20:30.431Z,100467.16
2022-12-12T10:23:05.882Z,100459.88
2022-12-12T10:25:42.162Z,100454.66
2022-12-12T10:28:12.663Z,100460.50
2022-12-12T10:30:57.693Z,100454.72
2022-12-12T10:33:35.914Z,100456.06
2022-12-12T10:36:17.355Z,100454.38
2022-12-12T10:39:04.532Z,100448.31
2022-12-12T10:41:45.306Z,100455.22
2022-12-12T10:44:24.820Z,100453.44
2022-12-12T10:47:01.383Z,100450.94
2022-12-12T10:49:30.338Z,100449.16
2022-12-12T10:52:00.915Z,100445.03
2022-12-12T10:54:32.837Z,100446.53
2022-12-12T10:57:16.542Z,100441.13
2022-12-12T10:59:49.368Z,100443.66
2022-12-12T11:02:28.532Z,100446.13
2022-12-12T11:05:03.649Z,100448.50
2022-12-12T11:07:32.045Z,100427.34
2022-12-12T11:10:02.301Z,100428.19
2022-12-12T11:12:35.228Z,100403.16
2022-12-12T11:15:07.588Z,100427.16
2022-12-12T11:17:37.141Z,100422.47
2022-12-12T11:20:09.871Z,100422.13
2022-12-12T11:22:40.447Z,100418.84
2022-12-12T11:25:08.587Z,100423.88
2022-12-12T11:27:40.362Z,100423.06
2022-12-12T11:30:22.545Z,100418.41
2022-12-12T11:32:55.334Z,100394.75
2022-12-12T11:35:26.810Z,100405.50
2022-12-12T11:37:58.685Z,100407.28
2022-12-12T11:40:31.046Z,100408.13
2022-12-12T11:43:23.666Z,100412.47
2022-12-12T11:46:00.554Z,100414.91
2022-12-12T11:48:41.000Z,100407.47
2022-12-12T11:51:09.515Z,100407.94
2022-12-12T11:53:40.056Z,100409.66
2022-12-12T11:56:21.861Z,100417.03
2022-12-12T11:58:56.709Z,100404.75
2022-12-12T12:01:34.548Z,100410.31
2022-12-12T12:04:16.889Z,100401.56
2022-12-12T12:06:59.758Z,100395.28
2022-12-12T12:09:36.887Z,100406.91
2022-12-12T12:12:11.256Z,100401.56
2022-12-12T12:14:56.648Z,100395.53
2022-12-12T12:17:33.237Z,100397.19
2022-12-12T12:20:13.145Z,100396.59
2022-12-12T12:22:49.383Z,100399.19
2022-12-12T12:25:36.479Z,100397.91
2022-12-12T12:28:37.652Z,100394.66
2022-12-12T12:31:14.545Z,100394.53
2022-12-12T12:33:55.030Z,100391.25
2022-12-12T12:36:26.344Z,100389.09
2022-12-12T12:39:01.722Z,100401.06
2022-12-12T12:41:45.543Z,100401.06
2022-12-12T12:44:28.354Z,100387.25
2022-12-12T12:47:03.668Z,100386.22
2022-12-12T12:49:36.082Z,100378.88
2022-12-12T12:52:11.521Z,100377.94
2022-12-12T12:54:41.311Z,100378.94
2022-12-12T12:57:15.746Z,100378.84
2022-12-12T12:59:48.183Z,100374.72
2022-12-12T13:02:27.196Z,100377.16
2022-12-12T13:05:06.749Z,100373.16
2022-12-12T13:07:43.731Z,100371.91
2022-12-12T13:10:20.668Z,100367.84
2022-12-12T13:12:55.547Z,100372.25
2022-12-12T13:15:28.543Z,100365.88
2022-12-12T13:18:01.356Z,100366.16
2022-12-12T13:20:31.930Z,100365.34
2022-12-12T13:23:13.718Z,100376.75
2022-12-12T13:25:50.740Z,100372.66
2022-12-12T13:28:22.549Z,100371.19
2022-12-12T13:31:13.503Z,100377.63
2022-12-12T13:33:44.984Z,100382.03
2022-12-12T13:36:18.184Z,100375.16
2022-12-12T13:38:51.809Z,100377.00
2022-12-12T13:41:20.391Z,100374.78
2022-12-12T13:43:50.269Z,100377.41
2022-12-12T13:46:40.837Z,100379.25
2022-12-12T13:49:29.915Z,100377.59
2022-12-12T13:52:23.798Z,100386.38
2022-12-12T13:55:12.714Z,100371.28
2022-12-12T13:58:08.190Z,100371.28
2022-12-12T14:00:40.072Z,100368.28
2022-12-12T14:03:31.877Z,100374.25
2022-12-12T14:06:12.014Z,100366.22
2022-12-12T14:08:49.472Z,100364.28
2022-12-12T14:11:31.003Z,100361.19
2022-12-12T14:14:10.467Z,100363.06
2022-12-12T14:16:38.495Z,100363.47
2022-12-12T14:19:09.765Z,100361.78
2022-12-12T14:21:41.388Z,100370.31
2022-12-12T14:24:48.395Z,100356.50
2022-12-12T14:27:17.762Z,100362.66
2022-12-12T14:29:46.955Z,100358.56
2022-12-12T14:32:37.009Z,100363.13
2022-12-12T14:35:24.978Z,100356.81
2022-12-12T14:38:05.051Z,100353.63
2022-12-12T14:40:34.821Z,100351.22
2022-12-12T14:43:20.213Z,100354.84
2022-12-12T14:45:58.182Z,100358.50
2022-12-12T14:48:30.097Z,100362.97
2022-12-12T14:51:02.632Z,100366.69
2022-12-12T14:53:34.403Z,100368.94
2022-12-12T14:56:04.895Z,100366.59
2022-12-12T14:58:37.960Z,100366.97
2022-12-12T15:01:07.252Z,100369.56
2022-12-12T15:03:40.098Z,100370.97
2022-12-12T15:06:22.372Z,100370.22
2022-12-12T15:08:50.711Z,100370.69
2022-12-12T15:11:21.429Z,100377.03
2022-12-12T15:13:55.255Z,100374.84
2022-12-12T15:16:29.744Z,100379.97
2022-12-12T15:18:59.892Z,100374.22
2022-12-12T15:21:27.847Z,100364.59
2022-12-12T15:23:55.615Z,100366.44
2022-12-12T15:26:27.831Z,100377.97
2022-12-12T15:28:57.327Z,100380.00
2022-12-12T15:31:26.584Z,100368.09
2022-12-12T15:33:54.416Z,100371.97
2022-12-12T15:36:27.650Z,100379.78
2022-12-12T15:39:11.721Z,100382.31
2022-12-12T15:41:39.461Z,100385.94
2022-12-12T15:44:08.781Z,100390.47
2022-12-12T15:46:37.196Z,100396.13
2022-12-12T15:49:05.157Z,100402.28
2022-12-12T15:51:33.132Z,100398.16
2022-12-12T15:54:02.147Z,100389.84
2022-12-12T15:56:30.543Z,100391.34
2022-12-12T15:59:15.839Z,100398.91
2022-12-12T16:01:45.271Z,100399.06
2022-12-12T16:04:25.983Z,100407.06
2022-12-12T16:06:53.721Z,100399.84
2022-12-12T16:09:22.918Z,100409.50
2022-12-12T16:11:52.132Z,100410.72
2022-12-12T16:14:38.634Z,100414.31
2022-12-12T16:17:13.360Z,100402.28
2022-12-12T16:19:44.519Z,100397.41
2022-12-12T16:22:32.037Z,100407.00
2022-12-12T16:25:21.173Z,100412.41
2022-12-12T16:27:53.239Z,100407.19
2022-12-12T16:30:21.536Z,100398.78
2022-12-12T16:32:53.651Z,100405.66
2022-12-12T16:35:23.747Z,100401.53
2022-12-12T16:37:53.060Z,100402.47
2022-12-12T16:40:22.484Z,100400.03
2022-12-12T16:43:02.597Z,100396.00
2022-12-12T16:45:32.836Z,100400.22
2022-12-12T16:48:02.160Z,100399.53
2022-12-12T16:50:29.891Z,100406.50
2022-12-12T16:52:57.921Z,100411.56
2022-12-12T16:55:26.227Z,100410.19
2022-12-12T16:57:54.035Z,100416.75
2022-12-12T17:00:21.809Z,100416.75
2022-12-12T17:02:49.618Z,100421.13
2022-12-12T17:05:23.518Z,100425.81
2022-12-12T17:07:52.096Z,100422.28
2022-12-12T17:10:20.602Z,100420.53
2022-12-12T17:12:48.885Z,100419.53
2022-12-12T17:15:21.587Z,100411.72
2022-12-12T17:17:49.334Z,100422.28
2022-12-12T17:20:17.541Z,100416.16
2022-12-12T17:22:47.063Z,100417.06
2022-12-12T17:25:15.218Z,100422.44
2022-12-12T17:27:43.257Z,100409.56
2022-12-12T17:30:13.808Z,100407.09
2022-12-12T17:32:42.079Z,100407.81
2022-12-12T17:35:10.830Z,100404.38
2022-12-12T17:37:38.892Z,100401.94
2022-12-12T17:40:11.000Z,100402.78
2022-12-12T17:42:39.605Z,100395.97
2022-12-12T17:45:10.181Z,100399.44
2022-12-12T17:47:38.121Z,100398.06
2022-12-12T17:50:06.648Z,100401.56
2022-12-12T17:52:34.478Z,100404.19
2022-12-12T17:55:53.156Z,100402.41
2022-12-12T17:57:51.353Z,100395.03
2022-12-12T18:00:19.570Z,100399.31
2022-12-12T18:02:47.337Z,100396.53
2022-12-12T18:05:19.433Z,100369.72
2022-12-12T18:07:47.497Z,100395.59
2022-12-12T18:10:15.745Z,100398.41
2022-12-12T18:12:48.268Z,100399.41
2022-12-12T18:15:20.617Z,100402.91
2022-12-12T18:17:48.362Z,100404.00
2022-12-12T18:20:16.424Z,100374.69
2022-12-12T18:22:44.506Z,100413.63
2022-12-12T18:25:12.351Z,100411.81
2022-12-12T18:27:40.373Z,100397.81
2022-12-12T18:30:09.123Z,100417.09
2022-12-12T18:32:38.197Z,100419.34
2022-12-12T18:35:06.730Z,100412.22
2022-12-12T18:37:34.544Z,100407.94
2022-12-12T18:40:02.270Z,100410.75
2022-12-12T18:42:29.981Z,100409.91
2022-12-12T18:44:58.369Z,100397.53
2022-12-12T18:47:26.064Z,100403.88
2022-12-12T18:49:55.180Z,100399.44
2022-12-12T18:52:22.934Z,100402.88
2022-12-12T18:54:51.973Z,100397.66
2022-12-12T18:57:19.811Z,100386.34
2022-12-12T18:59:47.499Z,100392.47
2022-12-12T19:02:15.583Z,100388.41
2022-12-12T19:04:44.685Z,100395.22
2022-12-12T19:07:13.808Z,100384.88
2022-12-12T19:09:41.867Z,100393.88
2022-12-12T19:12:09.558Z,100374.06
2022-12-12T19:14:59.655Z,100400.16
2022-12-12T19:17:26.759Z,100395.09
2022-12-12T19:19:55.255Z,100401.00
2022-12-12T19:22:45.604Z,100410.72
2022-12-12T19:25:12.727Z,100405.66
2022-12-12T19:27:40.460Z,100406.28
2022-12-12T19:30:11.652Z,100387.00
2022-12-12T19:32:39.655Z,100393.50
2022-12-12T19:35:08.211Z,100403.97
2022-12-12T19:37:38.209Z,100403.97
2022-12-12T19:40:06.882Z,100395.56
2022-12-12T19:42:34.607Z,100394.72
2022-12-12T19:45:04.336Z,100388.69
2022-12-12T19:47:33.310Z,100400.00
2022-12-12T19:50:01.086Z,100402.63
2022-12-12T19:52:29.160Z,100337.16
2022-12-12T19:54:58.222Z,100397.72
2022-12-12T19:57:26.397Z,100401.09
2022-12-12T19:59:54.326Z,100383.34
2022-12-12T20:02:22.298Z,100386.09
2022-12-12T20:04:50.082Z,100404.59
2022-12-12T20:07:18.196Z,100407.28
2022-12-12T20:09:45.950Z,100410.94
2022-12-12T20:12:15.043Z,100418.53
2022-12-12T20:14:42.754Z,100420.22
2022-12-12T20:17:10.841Z,100411.63
2022-12-12T20:19:38.917Z,100416.91
2022-12-12T20:22:09.281Z,100420.50
2022-12-12T20:24:37.425Z,100418.59
2022-12-12T20:27:05.606Z,100421.13
2022-12-12T20:29:34.747Z,100417.59
2022-12-12T20:32:02.980Z,100413.47
2022-12-12T20:34:31.339Z,100411.84
2022-12-12T20:36:59.377Z,100413.66
2022-12-12T20:39:27.164Z,100417.16
2022-12-12T20:41:56.623Z,100418.44
2022-12-12T20:44:25.406Z,100412.88
2022-12-12T20:46:54.685Z,100412.94
2022-12-12T20:49:24.540Z,100421.81
2022-12-12T20:51:55.979Z,100417.47
2022-12-12T20:54:25.166Z,100414.88
2022-12-12T20:56:53.969Z,100411.13
2022-12-12T20:59:22.055Z,100416.91
2022-12-12T21:01:49.935Z,100416.84
2022-12-12T21:04:19.185Z,100417.75
2022-12-12T21:06:49.738Z,100417.09
2022-12-12T21:09:23.709Z,100412.03
2022-12-12T21:11:53.758Z,100413.94
2022-12-12T21:14:21.552Z,100430.03
2022-12-12T21:16:49.284Z,100426.66
2022-12-12T21:19:18.883Z,100430.22
2022-12-12T21:21:48.087Z,100429.25
2022-12-12T21:24:17.972Z,100429.47
2022-12-12T21:26:47.176Z,100427.84
2022-12-12T21:29:15.575Z,100407.59
2022-12-12T21:31:50.231Z,100424.56
2022-12-12T21:34:20.291Z,100428.84
2022-12-12T21:36:51.197Z,100426.09
2022-12-12T21:39:18.979Z,100425.38
2022-12-12T21:41:46.747Z,100431.75
2022-12-12T21:44:14.484Z,100431.75
2022-12-12T21:46:44.014Z,100417.97
2022-12-12T21:49:26.287Z,100432.94
2022-12-12T21:51:58.745Z,100431.34
2022-12-12T21:54:28.897Z,100433.03
2022-12-12T21:56:56.918Z,100398.34
2022-12-12T21:59:25.616Z,100429.81
2022-12-12T22:01:55.477Z,100422.94
2022-12-12T22:04:23.252Z,100422.69
2022-12-12T22:06:51.152Z,100421.72
2022-12-12T22:09:20.305Z,100420.78
2022-12-12T22:11:51.997Z,100421.50
2022-12-12T22:14:22.192Z,100430.50
2022-12-12T22:16:50.409Z,100434.84
2022-12-12T22:19:18.714Z,100439.22
2022-12-12T22:21:48.332Z,100440.06
2022-12-12T22:24:17.204Z,100433.16
2022-12-12T22:26:47.991Z,100436.53
2022-12-12T22:29:19.316Z,100434.84
2022-12-12T22:31:49.805Z,100435.47
2022-12-12T22:34:19.815Z,100419.25
2022-12-12T22:36:48.692Z,100404.03
2022-12-12T22:39:19.381Z,100429.38
2022-12-12T22:41:50.081Z,100427.75
2022-12-12T22:44:20.224Z,100420.78
2022-12-12T22:46:49.994Z,100421.84
2022-12-12T22:49:20.494Z,100417.56
2022-12-12T22:51:51.537Z,100406.63
2022-12-12T22:54:19.949Z,100408.94
2022-12-12T22:56:49.043Z,100414.97
2022-12-12T22:59:16.846Z,100414.28
2022-12-12T23:01:44.877Z,100414.38
2022-12-12T23:04:13.849Z,100413.44
2022-12-12T23:06:42.848Z,100405.72
2022-12-12T23:09:14.992Z,100390.03
2022-12-12T23:11:43.271Z,100406.53
2022-12-12T23:14:15.687Z,100405.56
2022-12-12T23:16:44.417Z,100400.03
2022-12-12T23:19:14.437Z,100399.06
2022-12-12T23:21:42.442Z,100397.31
2022-12-12T23:24:10.808Z,100395.84
2022-12-12T23:26:38.829Z,100395.16
2022-12-12T23:29:09.223Z,100384.97
2022-12-12T23:31:39.730Z,100388.63
2022-12-12T23:34:09.533Z,100385.09
2022-12-12T23:36:38.167Z,100362.19
2022-12-12T23:39:08.254Z,100382.66
2022-12-12T23:41:36.697Z,100376.53
2022-12-12T23:44:05.195Z,100374.72
2022-12-12T23:46:32.984Z,100380.91
2022-12-12T23:49:04.352Z,100377.63
2022-12-12T23:51:34.529Z,100377.31
2022-12-12T23:54:05.123Z,100372.34
2022-12-12T23:59:22.724Z,100370.75
